Ufo 3 — IUNV — position and weather

sailwx.info

Track history (hours):
 
Tides and Currents Weather Stations Pressure Air Temp Water Temp Dewpoint Dewpoint Depression Visibility Wind Speed Wind Dir Waves Ship Positions

Ufo 3

Last reported at 2014-Oct-19 15:18 UTC. Time now 2014-Oct-22 03:20 UTC.
Position N 44°07' E 009°42'.

Length 28 m.

Type: Passenger vessel. MMSI: 247031600.

Date/timePositionNaut miles runAvg speedWind from/ knotsBaromVisibWave heightAir tempDewpointWater temp
2014-Oct-19 15:18N 44°07' E 009°42'810.1
2014-Oct-19 14:33N 44°03' E 009°50'2 2.0
2014-Oct-19 13:34N 44°04' E 009°48'8 7.7
2014-Oct-19 12:33N 44°09' E 009°39'0 0.0
2014-Oct-19 11:32N 44°09' E 009°39'4 4.1
2014-Oct-19 10:27N 44°06' E 009°44'5 5.8
2014-Oct-19 09:33N 44°03' E 009°50'0 0.0
2014-Oct-19 08:33N 44°03' E 009°50'0 0.0
2014-Oct-19 07:33N 44°03' E 009°50'0 0.0
2014-Oct-18 08:15N 44°03' E 009°51'0 0.0
2014-Oct-18 07:33N 44°03' E 009°51'0 0.0
2014-Oct-16 09:04N 44°03' E 009°51'3 6.0
2014-Oct-16 08:33N 44°04' E 009°54'3 3.3
2014-Oct-16 07:33N 44°03' E 009°50'0 0.0
2014-Oct-15 16:11N 44°03' E 009°51'7 8.5
2014-Oct-15 15:22N 44°07' E 009°42'3 3.7
2014-Oct-15 14:32N 44°09' E 009°39'4 4.1
2014-Oct-15 13:28N 44°06' E 009°44'5 5.8
2014-Oct-15 12:33N 44°03' E 009°50'0 0.0
2014-Oct-15 11:33N 44°03' E 009°50'7 6.1
2014-Oct-15 10:28N 44°07' E 009°42'7 3.5
2014-Oct-15 08:33N 44°03' E 009°50'1 1.3
2014-Oct-15 07:33N 44°04' E 009°51'2 0.1
2014-Oct-14 14:33N 44°04' E 009°48'8 7.2
2014-Oct-14 13:27N 44°09' E 009°39'4 4.2
2014-Oct-14 12:26N 44°06' E 009°44'5 6.0
2014-Oct-14 11:33N 44°03' E 009°50'0 0.0
2014-Oct-14 10:33N 44°03' E 009°50'0 0.0
2014-Oct-14 09:33N 44°03' E 009°50'10 9.0
2014-Oct-14 08:29N 44°09' E 009°39'3 2.6
2014-Oct-14 07:27N 44°07' E 009°42'  
2014-Oct-11 11:33N 44°03' E 009°50'2 1.6
2014-Oct-11 10:33N 44°04' E 009°48'4 3.8
2014-Oct-11 09:27N 44°06' E 009°43'8 9.1
2014-Oct-11 08:33N 44°04' E 009°54'3 3.0
2014-Oct-11 07:34N 44°03' E 009°51'  
Track history (hours):
 
Tides and Currents Weather Stations Pressure Air Temp Water Temp Dewpoint Dewpoint Depression Visibility Wind Speed Wind Dir Waves Ship Positions

Ufo 3

Last reported at 2014-Oct-19 15:18 UTC. Time now 2014-Oct-22 03:20 UTC.
Position N 44°07' E 009°42'.

Length 28 m.

Type: Passenger vessel. MMSI: 247031600.

Date/timePositionNaut miles runAvg speedWind from/ knotsBaromVisibWave heightAir tempDewpointWater temp
2014-Oct-19 15:18N 44°07' E 009°42'810.1
2014-Oct-19 14:33N 44°03' E 009°50'2 2.0
2014-Oct-19 13:34N 44°04' E 009°48'8 7.7
2014-Oct-19 12:33N 44°09' E 009°39'0 0.0
2014-Oct-19 11:32N 44°09' E 009°39'4 4.1
2014-Oct-19 10:27N 44°06' E 009°44'5 5.8
2014-Oct-19 09:33N 44°03' E 009°50'0 0.0
2014-Oct-19 08:33N 44°03' E 009°50'0 0.0
2014-Oct-19 07:33N 44°03' E 009°50'0 0.0
2014-Oct-18 08:15N 44°03' E 009°51'0 0.0
2014-Oct-18 07:33N 44°03' E 009°51'0 0.0
2014-Oct-16 09:04N 44°03' E 009°51'3 6.0
2014-Oct-16 08:33N 44°04' E 009°54'3 3.3
2014-Oct-16 07:33N 44°03' E 009°50'0 0.0
2014-Oct-15 16:11N 44°03' E 009°51'7 8.5
2014-Oct-15 15:22N 44°07' E 009°42'3 3.7
2014-Oct-15 14:32N 44°09' E 009°39'4 4.1
2014-Oct-15 13:28N 44°06' E 009°44'5 5.8
2014-Oct-15 12:33N 44°03' E 009°50'0 0.0
2014-Oct-15 11:33N 44°03' E 009°50'7 6.1
2014-Oct-15 10:28N 44°07' E 009°42'7 3.5
2014-Oct-15 08:33N 44°03' E 009°50'1 1.3
2014-Oct-15 07:33N 44°04' E 009°51'2 0.1
2014-Oct-14 14:33N 44°04' E 009°48'8 7.2
2014-Oct-14 13:27N 44°09' E 009°39'4 4.2
2014-Oct-14 12:26N 44°06' E 009°44'5 6.0
2014-Oct-14 11:33N 44°03' E 009°50'0 0.0
2014-Oct-14 10:33N 44°03' E 009°50'0 0.0
2014-Oct-14 09:33N 44°03' E 009°50'10 9.0
2014-Oct-14 08:29N 44°09' E 009°39'3 2.6
2014-Oct-14 07:27N 44°07' E 009°42'  
2014-Oct-11 11:33N 44°03' E 009°50'2 1.6
2014-Oct-11 10:33N 44°04' E 009°48'4 3.8
2014-Oct-11 09:27N 44°06' E 009°43'8 9.1
2014-Oct-11 08:33N 44°04' E 009°54'3 3.0
2014-Oct-11 07:34N 44°03' E 009°51'  

Dump ship's entire track history